< Typhoon 195913 1959 Season Typhoon 195915 >
Typhoon 195914 (SARAH)
Miyakojima Typhoon
General InformationTrack Information on Google Maps || NewsDisaster Info.ResourceGoogle EarthGE AnimationAtom FeedGeoJSON
Detalied Best Track (Time Zone = UTC)
Year Month Day Hour Lat. Long. Pressure (hPa) Wind (kt) Class Image Chart
1959 9 11 00 13.6 146.5 1008 0 2 -- Chart
1959 9 11 06 12.4 144.4 1006 0 2 -- Chart
1959 9 11 12 13.2 143.5 1004 0 2 -- Chart
1959 9 11 18 13.5 142.7 1000 0 2 -- Chart
1959 9 12 00 13.5 141.6 995 0 9 -- Chart
1959 9 12 06 13.8 140.4 985 0 9 -- Chart
1959 9 12 12 14.6 138.7 980 0 9 -- Chart
1959 9 12 18 15.6 137.2 975 0 9 -- Chart
1959 9 13 00 16.3 135.7 965 0 9 -- Chart
1959 9 13 06 17.1 134.2 960 0 9 -- Chart
1959 9 13 12 18.0 132.5 955 0 9 -- Chart
1959 9 13 18 19.0 131.0 950 0 9 -- Chart
1959 9 14 00 19.7 129.8 940 0 9 -- Chart
1959 9 14 06 20.3 128.7 935 0 9 -- Chart
1959 9 14 12 21.1 127.8 920 0 9 -- Chart
1959 9 14 18 21.7 127.0 920 0 9 -- Chart
1959 9 15 00 22.9 126.5 905 0 9 -- Chart
1959 9 15 06 24.1 125.9 905 0 9 -- Chart
1959 9 15 12 25.2 125.3 905 0 9 -- Chart
1959 9 15 18 26.0 125.0 905 0 9 -- Chart
1959 9 16 00 27.3 125.0 905 0 9 -- Chart
1959 9 16 06 28.5 125.0 935 0 9 -- Chart
1959 9 16 12 30.1 125.7 935 0 9 -- Chart
1959 9 16 18 32.0 126.6 935 0 9 -- Chart
1959 9 17 00 34.0 128.0 945 0 9 -- Chart
1959 9 17 06 35.8 129.9 950 0 9 -- Chart
1959 9 17 12 38.2 132.2 965 0 9 -- Chart
1959 9 17 18 40.6 135.2 970 0 9 -- Chart
1959 9 18 00 42.6 136.8 975 0 9 -- Chart
1959 9 18 06 44.2 139.4 970 0 9 -- Chart
1959 9 18 12 45.3 141.0 974 0 9 -- Chart
1959 9 18 18 46.8 142.5 976 0 9 -- Chart
1959 9 19 00 48.0 143.0 984 0 6 -- Chart
1959 9 19 06 49.1 145.5 984 0 6 -- Chart
1959 9 19 12 50.4 145.0 984 0 6 -- Chart
1959 9 19 18 50.0 141.5 990 0 6 -- Chart
1959 9 20 00 50.0 141.0 996 0 6 -- Chart
1959 9 20 06 50.0 140.0 998 0 6 -- Chart
1959 9 20 12 50.0 139.0 1000 0 6 -- Chart
1959 9 20 18 49.1 139.0 1002 0 6 -- Chart
1959 9 21 00 48.6 141.5 1004 0 6 -- Chart
1959 9 21 06 48.6 142.5 1004 0 6 -- Chart
1959 9 21 12 48.5 147.0 1006 0 6 -- Chart
1959 9 21 18 48.0 149.0 1004 0 6 -- Chart
1959 9 22 00 48.0 150.0 1004 0 6 -- Chart
1959 9 22 06 47.0 155.0 1004 0 6 -- Chart
1959 9 22 12 47.0 157.0 1004 0 6 -- Chart
1959 9 22 18 46.5 159.5 1004 0 6 -- Chart
1959 9 23 00 46.5 162.0 1006 0 6 -- Chart
1959 9 23 06 46.5 163.5 1008 0 6 -- Chart
1959 9 23 12 47.0 166.0 1008 0 6 -- Chart
Japan Meteorological Agency Best Track Data | Correction Date : 1989-06-01
< Typhoon 195913 1959 Season Typhoon 195915 >

Help